Fort Leavenworth, Kansas
Current Conditions -  °F | °C
As of 9:53 AM on Friday 31 Oct 2014 (Local Time) from KMCI Reporting Station
Clear Clear  
Wind Chill: 24°   Ceiling: Unl
Heat Index: 35°   Visibility: 10mi
Dew Point: 20°   Wind: 20mph
Humidity: 54%   Direction: 360°N
Pressure: 30.49"   Gusts: 25mph
Location:  39.34°N, 94.92°W
Report Text: KMCI 311453Z 36017G22KT 10SM CLR 02/M07 A3049 RMK AO2 SLP329 T00171067 51029
Loading
Personal Weather Stations






























Interactive Weather Map
Tropical Storm Tracking
New forecast layout! Learn more

10-Day Weather Forecast

Advertisements
Track Severe Weather on mobile